Time;durP1;ratioP1;P1;durP2;ratioP2;P2;SDS_P1;SDS_P2;PMS_P1;PMS_P2;Temp;Humidity;BMP_temperature;BMP_pressure;BME280_temperature;BME280_humidity;BME280_pressure;Samples;Min_cycle;Max_cycle;Signal;HPM_P1;HPM_P2
2023/12/22 00:02:17;;;;;;;1.75;1.00;;;22.60;40.60;;;;;;5117466;28;20016;-41
2023/12/22 00:04:43;;;;;;;1.38;0.90;;;22.60;40.50;;;;;;5107476;28;20025;-42
2023/12/22 00:07:09;;;;;;;1.30;1.02;;;22.50;40.50;;;;;;5111209;28;20024;-42
2023/12/22 00:09:35;;;;;;;2.40;1.08;;;22.50;40.60;;;;;;5114765;28;20468;-42
2023/12/22 00:12:02;;;;;;;2.05;1.00;;;22.40;40.60;;;;;;5112454;28;20035;-42
2023/12/22 00:14:28;;;;;;;0.98;0.88;;;22.30;40.60;;;;;;5114181;28;20047;-42
2023/12/22 00:16:54;;;;;;;1.30;0.98;;;22.30;40.60;;;;;;5108798;28;20051;-42
2023/12/22 00:19:20;;;;;;;1.55;0.98;;;22.30;40.60;;;;;;5109249;28;20122;-42
2023/12/22 00:21:46;;;;;;;1.10;0.95;;;22.50;40.50;;;;;;5116283;28;20035;-42
2023/12/22 00:24:12;;;;;;;1.60;0.82;;;22.60;40.30;;;;;;5117723;28;20023;-42
2023/12/22 00:26:38;;;;;;;1.27;0.95;;;22.70;40.10;;;;;;5117880;28;20024;-41
2023/12/22 00:29:04;;;;;;;1.23;0.90;;;22.80;40.10;;;;;;5115847;28;20066;-42
2023/12/22 00:31:30;;;;;;;1.08;0.85;;;22.90;40.00;;;;;;5109863;28;20481;-42
2023/12/22 00:33:57;;;;;;;1.35;1.00;;;23.00;40.00;;;;;;5116410;28;20035;-41
2023/12/22 00:36:24;;;;;;;1.38;0.93;;;23.10;39.80;;;;;;5115869;28;20036;-43
2023/12/22 00:38:50;;;;;;;;;;;23.00;40.00;;;;;;5114551;28;20069;-42
2023/12/22 00:41:16;;;;;;;1.92;1.00;;;22.90;40.00;;;;;;5111727;28;19907;-41
2023/12/22 00:43:43;;;;;;;1.38;0.98;;;22.80;40.20;;;;;;5109575;28;20027;-42
2023/12/22 00:46:09;;;;;;;1.20;1.00;;;22.70;40.30;;;;;;5112018;28;20109;-42
2023/12/22 00:48:35;;;;;;;1.10;0.80;;;22.60;40.30;;;;;;5114217;28;20508;-42
2023/12/22 00:51:01;;;;;;;1.27;0.95;;;22.60;40.40;;;;;;5120572;28;20040;-43
2023/12/22 00:53:27;;;;;;;1.40;0.95;;;22.60;40.40;;;;;;5112842;28;20028;-42
2023/12/22 00:55:53;;;;;;;0.85;0.77;;;22.60;40.20;;;;;;5108411;28;20408;-43
2023/12/22 00:58:19;;;;;;;1.13;0.90;;;22.60;40.30;;;;;;5107433;28;20066;-42
2023/12/22 01:00:45;;;;;;;1.42;1.00;;;22.50;40.40;;;;;;5120837;28;20058;-42
2023/12/22 01:03:12;;;;;;;1.65;1.00;;;22.40;40.40;;;;;;5114541;28;20030;-42
2023/12/22 01:05:38;;;;;;;1.58;0.90;;;22.30;40.40;;;;;;5119091;28;20027;-42
2023/12/22 01:08:05;;;;;;;1.98;1.10;;;22.30;40.50;;;;;;5115187;28;20040;-41
2023/12/22 01:10:31;;;;;;;1.00;0.80;;;22.30;40.40;;;;;;5132638;28;20050;-42
2023/12/22 01:12:57;;;;;;;2.25;0.93;;;22.40;40.40;;;;;;5106275;28;20605;-41
2023/12/22 01:15:23;;;;;;;1.20;0.90;;;22.40;40.40;;;;;;5119765;28;20054;-42
2023/12/22 01:17:49;;;;;;;1.73;1.10;;;22.60;40.30;;;;;;5113110;28;20122;-41
2023/12/22 01:20:16;;;;;;;1.23;0.82;;;22.70;40.10;;;;;;5112633;28;20035;-43
2023/12/22 01:22:42;;;;;;;1.63;0.80;;;22.80;40.00;;;;;;5113656;28;20038;-42
2023/12/22 01:25:08;;;;;;;1.15;1.00;;;22.90;39.70;;;;;;5106993;28;20028;-42
2023/12/22 01:27:34;;;;;;;1.20;1.10;;;22.90;39.90;;;;;;5117908;28;20049;-41
2023/12/22 01:30:00;;;;;;;1.33;0.90;;;22.90;39.90;;;;;;5110913;28;20028;-42
2023/12/22 01:32:32;;;;;;;1.20;0.90;;;22.70;40.10;;;;;;5122364;28;20031;-42
2023/12/22 01:35:03;;;;;;;1.90;0.98;;;22.70;40.20;;;;;;5119760;28;20027;-43
2023/12/22 01:37:29;;;;;;;1.23;0.90;;;22.50;40.30;;;;;;5101716;28;20031;-42
2023/12/22 01:39:56;;;;;;;1.35;1.00;;;22.50;40.30;;;;;;5113802;28;20154;-43
2023/12/22 01:42:22;;;;;;;1.33;1.10;;;22.50;40.30;;;;;;5115535;27;20067;-42
2023/12/22 01:44:48;;;;;;;1.45;0.90;;;22.50;40.30;;;;;;5117742;28;20583;-40
2023/12/22 01:47:14;;;;;;;4.88;1.02;;;22.50;40.70;;;;;;5115072;28;20049;-43
2023/12/22 01:49:41;;;;;;;4.30;1.20;;;22.50;41.20;;;;;;5092343;28;20044;-43
2023/12/22 01:52:07;;;;;;;4.53;1.33;;;22.40;41.20;;;;;;5094394;28;20275;-42
2023/12/22 01:54:34;;;;;;;2.67;1.00;;;22.30;41.30;;;;;;5112974;28;20056;-41
2023/12/22 01:57:00;;;;;;;2.10;1.00;;;22.30;41.30;;;;;;5113622;27;20077;-41
2023/12/22 01:59:26;;;;;;;2.85;1.08;;;22.30;41.40;;;;;;5116602;28;20032;-42
2023/12/22 02:01:53;;;;;;;1.73;0.93;;;22.40;41.10;;;;;;5120400;28;20039;-42
2023/12/22 02:04:19;;;;;;;1.27;1.00;;;22.40;41.10;;;;;;5115594;27;20039;-42
2023/12/22 02:06:45;;;;;;;1.15;0.90;;;22.40;41.00;;;;;;5097497;28;20039;-40
2023/12/22 02:09:12;;;;;;;1.10;0.90;;;22.50;40.90;;;;;;5091145;28;20632;-43
2023/12/22 02:11:40;;;;;;;0.85;0.80;;;22.60;40.90;;;;;;5114698;28;20043;-43
2023/12/22 02:14:06;;;;;;;1.35;0.90;;;22.70;40.70;;;;;;5115335;28;20028;-42
2023/12/22 02:16:57;;;;;;;1.10;0.80;;;22.80;40.90;;;;;;5120320;28;20049;-42
2023/12/22 02:19:31;;;;;;;3.53;1.10;;;22.70;41.00;;;;;;5080154;27;20016;-41
2023/12/22 02:22:04;;;;;;;2.63;1.02;;;22.60;41.10;;;;;;5117290;27;20091;-42
2023/12/22 02:24:31;;;;;;;2.10;0.90;;;22.50;41.20;;;;;;5120857;28;20179;-42
2023/12/22 02:27:07;;;;;;;1.88;1.02;;;22.40;41.20;;;;;;5114075;28;20027;-43
2023/12/22 02:29:37;;;;;;;1.25;0.90;;;22.40;41.40;;;;;;5111499;28;20114;-43
2023/12/22 02:32:06;;;;;;;2.33;1.00;;;22.40;41.30;;;;;;5113736;28;20024;-43
2023/12/22 02:34:33;;;;;;;1.90;1.20;;;22.50;41.30;;;;;;5094755;28;20177;-42
2023/12/22 02:36:59;;;;;;;2.08;1.17;;;22.40;41.40;;;;;;5102392;28;20031;-43
2023/12/22 02:39:25;;;;;;;4.07;1.20;;;22.40;41.50;;;;;;5098178;28;20116;-42
2023/12/22 02:41:51;;;;;;;2.30;1.30;;;22.30;41.60;;;;;;5091603;28;20416;-42
2023/12/22 02:44:18;;;;;;;2.25;1.23;;;22.30;41.80;;;;;;5115240;28;20031;-43
2023/12/22 02:46:44;;;;;;;1.50;1.00;;;22.20;41.80;;;;;;5117444;28;20047;-43
2023/12/22 02:49:10;;;;;;;0.95;0.75;;;22.30;41.70;;;;;;5116831;28;20114;-42
2023/12/22 02:51:36;;;;;;;1.57;1.20;;;22.30;41.60;;;;;;5118289;28;20070;-43
2023/12/22 02:54:03;;;;;;;2.85;0.73;;;22.40;41.50;;;;;;5116914;28;20466;-42
2023/12/22 02:56:29;;;;;;;1.75;1.30;;;22.50;41.40;;;;;;5116835;28;20109;-42
2023/12/22 02:58:55;;;;;;;1.42;1.13;;;22.60;41.20;;;;;;5116627;28;20057;-42
2023/12/22 03:01:23;;;;;;;1.33;1.02;;;22.70;41.20;;;;;;5116225;28;20043;-42
2023/12/22 03:03:49;;;;;;;1.65;1.00;;;22.80;41.10;;;;;;5119124;28;20059;-43
2023/12/22 03:06:16;;;;;;;1.33;1.02;;;22.80;41.20;;;;;;5116271;28;20034;-42
2023/12/22 03:08:42;;;;;;;1.70;1.15;;;22.70;41.10;;;;;;5118253;28;20020;-43
2023/12/22 03:11:08;;;;;;;1.45;1.25;;;22.70;41.40;;;;;;5117839;28;20035;-42
2023/12/22 03:13:34;;;;;;;1.52;1.30;;;22.60;41.40;;;;;;5116733;28;20078;-41
2023/12/22 03:16:00;;;;;;;1.60;1.20;;;22.50;41.50;;;;;;5117669;28;20038;-42
2023/12/22 03:18:27;;;;;;;1.48;1.27;;;22.50;41.70;;;;;;5117019;28;20023;-42
2023/12/22 03:20:53;;;;;;;1.48;1.30;;;22.50;41.60;;;;;;5119422;28;20534;-42
2023/12/22 03:23:19;;;;;;;1.73;1.30;;;22.50;41.40;;;;;;5117270;28;20048;-42
2023/12/22 03:25:45;;;;;;;3.42;1.30;;;22.50;41.40;;;;;;5118162;28;20020;-43
2023/12/22 03:28:12;;;;;;;2.22;1.15;;;22.40;41.60;;;;;;5113468;28;20039;-43
2023/12/22 03:30:38;;;;;;;1.38;1.25;;;22.40;41.70;;;;;;5117434;28;20054;-42
2023/12/22 03:33:06;;;;;;;1.60;1.10;;;22.30;41.80;;;;;;5118278;28;20119;-42
2023/12/22 03:35:32;;;;;;;1.48;1.17;;;22.30;41.90;;;;;;5119008;28;20039;-42
2023/12/22 03:37:59;;;;;;;1.92;1.65;;;22.30;41.80;;;;;;5117926;28;20484;-42
2023/12/22 03:40:25;;;;;;;1.80;1.30;;;22.30;41.60;;;;;;5099159;28;20043;-42
2023/12/22 03:42:51;;;;;;;1.65;1.35;;;22.40;41.60;;;;;;5118382;28;20596;-43
2023/12/22 03:45:17;;;;;;;1.92;1.40;;;22.50;41.50;;;;;;5114973;28;20189;-44
2023/12/22 03:47:43;;;;;;;2.00;1.40;;;22.60;41.40;;;;;;5118433;28;20027;-42
2023/12/22 03:50:10;;;;;;;1.50;1.20;;;22.70;41.30;;;;;;5113709;28;20051;-42
2023/12/22 03:52:36;;;;;;;1.90;1.23;;;22.70;41.30;;;;;;5114151;28;20027;-42
2023/12/22 03:55:02;;;;;;;1.52;1.42;;;22.80;41.30;;;;;;5115498;28;20038;-42
2023/12/22 03:57:29;;;;;;;1.67;1.50;;;22.70;41.20;;;;;;5098068;28;20039;-43
2023/12/22 03:59:55;;;;;;;1.75;1.40;;;22.70;41.50;;;;;;5115432;27;20114;-40
2023/12/22 04:02:22;;;;;;;1.70;1.30;;;22.60;41.60;;;;;;5117669;27;20031;-42
2023/12/22 04:04:48;;;;;;;3.25;1.70;;;22.50;41.70;;;;;;5113869;28;20030;-43
2023/12/22 04:07:14;;;;;;;1.70;1.27;;;22.50;41.70;;;;;;5116638;28;20032;-43
2023/12/22 04:09:40;;;;;;;3.03;1.35;;;22.50;41.80;;;;;;5114175;28;20057;-43
2023/12/22 04:12:07;;;;;;;1.55;1.25;;;22.50;41.70;;;;;;5115705;28;20032;-43
2023/12/22 04:14:33;;;;;;;2.30;1.60;;;22.50;41.50;;;;;;5117233;28;20036;-43
2023/12/22 04:16:59;;;;;;;1.93;1.53;;;22.40;42.20;;;;;;5118636;28;21665;-42
2023/12/22 04:19:26;;;;;;;2.92;1.70;;;22.40;41.80;;;;;;5099304;28;20050;-43
2023/12/22 04:21:52;;;;;;;2.33;1.77;;;22.30;41.90;;;;;;5114817;28;20034;-42
2023/12/22 04:24:18;;;;;;;3.63;1.70;;;22.30;41.90;;;;;;5117109;28;20019;-42
2023/12/22 04:26:44;;;;;;;3.45;1.50;;;22.30;41.80;;;;;;5114834;28;20031;-42
2023/12/22 04:29:10;;;;;;;2.13;1.75;;;22.30;41.90;;;;;;5114076;28;20088;-42
2023/12/22 04:31:37;;;;;;;2.78;1.60;;;22.30;41.70;;;;;;5114305;28;20032;-43
2023/12/22 04:34:03;;;;;;;1.95;1.55;;;22.40;41.70;;;;;;5108323;28;20028;-43
2023/12/22 04:36:29;;;;;;;3.00;1.33;;;22.50;41.60;;;;;;5116190;28;20040;-42
2023/12/22 04:38:55;;;;;;;2.40;1.40;;;22.60;41.60;;;;;;5115623;28;20502;-42
2023/12/22 04:41:22;;;;;;;3.15;1.70;;;22.60;42.10;;;;;;5108734;28;20062;-42
2023/12/22 04:43:48;;;;;;;3.20;2.20;;;22.70;41.60;;;;;;5111128;28;20626;-43
2023/12/22 04:46:14;;;;;;;3.97;2.10;;;22.60;41.50;;;;;;5109746;28;20054;-43
2023/12/22 04:48:40;;;;;;;3.70;2.10;;;22.60;42.30;;;;;;5119221;28;20043;-46
2023/12/22 04:51:06;;;;;;;2.30;1.80;;;22.50;41.80;;;;;;5113288;28;20044;-43
2023/12/22 04:53:32;;;;;;;3.22;1.95;;;22.40;41.80;;;;;;5116561;28;20047;-43
2023/12/22 04:55:58;;;;;;;2.30;1.60;;;22.40;41.90;;;;;;5117079;28;20036;-43
2023/12/22 04:58:25;;;;;;;3.25;2.05;;;22.40;41.90;;;;;;5115268;28;20048;-42
2023/12/22 05:00:51;;;;;;;2.40;1.80;;;22.40;41.70;;;;;;5119221;28;20061;-44
2023/12/22 05:03:17;;;;;;;3.65;2.05;;;22.30;41.80;;;;;;5122943;28;20023;-43
2023/12/22 05:05:43;;;;;;;3.25;2.22;;;22.30;41.90;;;;;;5116996;28;20041;-43
2023/12/22 05:08:10;;;;;;;2.22;1.90;;;22.20;42.00;;;;;;5120278;28;20036;-42
2023/12/22 05:10:36;;;;;;;2.22;1.90;;;22.20;42.00;;;;;;5100900;28;20034;-43
2023/12/22 05:13:02;;;;;;;3.53;2.03;;;22.10;42.10;;;;;;5119984;28;20063;-43
2023/12/22 05:15:28;;;;;;;2.45;2.10;;;22.20;42.10;;;;;;5121051;28;20040;-43
2023/12/22 05:17:54;;;;;;;2.08;1.63;;;22.20;41.90;;;;;;5118351;28;20043;-43
2023/12/22 05:20:20;;;;;;;3.60;1.70;;;22.30;41.80;;;;;;5115858;27;20034;-43
2023/12/22 05:22:46;;;;;;;2.55;1.80;;;22.40;41.70;;;;;;5122398;28;20031;-43
2023/12/22 05:25:13;;;;;;;2.53;1.73;;;22.50;41.70;;;;;;5119209;28;20031;-42
2023/12/22 05:27:42;;;;;;;2.10;1.90;;;22.60;41.60;;;;;;5120029;28;20028;-42
2023/12/22 05:30:09;;;;;;;1.90;1.50;;;22.60;41.60;;;;;;5102976;28;20042;-43
2023/12/22 05:32:35;;;;;;;2.28;1.60;;;22.60;41.50;;;;;;5119673;27;20032;-42
2023/12/22 05:35:01;;;;;;;3.67;1.80;;;22.60;41.50;;;;;;5114802;28;20596;-43
2023/12/22 05:37:28;;;;;;;1.88;1.67;;;22.60;41.60;;;;;;5120232;28;21159;-43
2023/12/22 05:39:55;;;;;;;2.60;1.88;;;22.50;41.60;;;;;;5117763;28;20096;-43
2023/12/22 05:42:21;;;;;;;2.67;1.88;;;22.50;41.70;;;;;;5117906;28;20040;-44
2023/12/22 05:44:49;;;;;;;2.03;1.65;;;22.40;41.70;;;;;;5115633;28;20080;-43
2023/12/22 05:47:16;;;;;;;2.13;1.70;;;22.40;41.80;;;;;;5118396;28;20038;-43
2023/12/22 05:49:43;;;;;;;3.20;2.08;;;22.40;41.70;;;;;;5116198;28;20059;-43
2023/12/22 05:52:12;;;;;;;4.03;2.10;;;22.40;41.70;;;;;;5119292;28;20088;-43
2023/12/22 05:54:38;;;;;;;2.00;1.77;;;22.40;41.80;;;;;;5117313;28;20055;-43
2023/12/22 05:57:06;;;;;;;2.35;1.83;;;22.30;41.90;;;;;;5119808;28;20044;-43
2023/12/22 05:59:32;;;;;;;;;;;22.20;41.90;;;;;;5120980;28;20087;-42
2023/12/22 06:01:59;;;;;;;2.17;1.67;;;22.20;41.90;;;;;;5118971;28;19912;-43
2023/12/22 06:04:25;;;;;;;1.92;1.75;;;22.30;41.80;;;;;;5117469;27;20142;-42
2023/12/22 06:06:52;;;;;;;2.70;1.90;;;22.30;41.80;;;;;;5118703;27;20118;-43
2023/12/22 06:09:22;;;;;;;2.13;1.70;;;22.20;41.90;;;;;;5120969;28;20100;-43
2023/12/22 06:11:48;;;;;;;2.53;1.60;;;22.20;41.90;;;;;;5120568;27;20043;-43
2023/12/22 06:14:14;;;;;;;2.40;1.50;;;22.30;42.50;;;;;;5120078;28;20047;-43
2023/12/22 06:16:40;;;;;;;2.72;1.83;;;22.40;41.80;;;;;;5119234;28;20040;-43
2023/12/22 06:19:06;;;;;;;2.67;1.77;;;22.50;41.70;;;;;;5122181;28;20085;-43
2023/12/22 06:21:33;;;;;;;2.70;1.90;;;22.50;41.60;;;;;;5119475;28;20384;-43
2023/12/22 06:23:59;;;;;;;2.20;1.70;;;22.50;41.50;;;;;;5119539;28;20023;-43
2023/12/22 06:26:25;;;;;;;3.10;1.90;;;22.40;41.70;;;;;;5115647;28;20099;-42
2023/12/22 06:28:51;;;;;;;1.95;1.70;;;22.30;41.70;;;;;;5124080;27;20020;-42
2023/12/22 06:31:19;;;;;;;2.33;1.70;;;22.30;41.90;;;;;;5118677;27;20032;-44
2023/12/22 06:33:45;;;;;;;2.17;1.70;;;22.30;41.90;;;;;;5121868;27;20031;-43
2023/12/22 06:36:21;;;;;;;2.17;1.35;;;22.30;41.70;;;;;;5118146;28;20035;-43
2023/12/22 06:38:54;;;;;;;2.67;1.70;;;22.30;41.70;;;;;;5119655;28;20028;-42
2023/12/22 06:41:28;;;;;;;2.55;1.73;;;22.20;41.80;;;;;;5100336;28;20028;-43
2023/12/22 06:43:54;;;;;;;4.65;2.10;;;22.20;42.50;;;;;;5115455;27;20049;-43
2023/12/22 06:46:22;;;;;;;5.32;1.90;;;22.10;41.90;;;;;;5116917;28;20121;-43
2023/12/22 06:48:48;;;;;;;2.30;1.63;;;22.10;42.00;;;;;;5114826;28;20055;-44
2023/12/22 06:51:21;;;;;;;3.30;1.95;;;22.10;41.90;;;;;;5119590;28;20116;-42
2023/12/22 06:53:50;;;;;;;2.65;1.67;;;22.10;41.80;;;;;;5118475;28;20050;-42
2023/12/22 06:56:18;;;;;;;2.63;1.73;;;22.10;41.70;;;;;;5117331;28;20035;-45
2023/12/22 06:58:46;;;;;;;;;;;22.20;41.90;;;;;;5121903;28;20023;-42
2023/12/22 07:01:12;;;;;;;2.25;1.77;;;22.20;41.70;;;;;;5116505;28;19918;-42
2023/12/22 07:03:39;;;;;;;2.42;1.55;;;22.30;41.80;;;;;;5116947;28;20108;-42
2023/12/22 07:06:05;;;;;;;2.75;1.60;;;22.40;41.80;;;;;;5115277;28;20035;-42
2023/12/22 07:08:31;;;;;;;2.83;1.80;;;22.40;41.70;;;;;;5119621;28;20027;-42
2023/12/22 07:10:57;;;;;;;3.15;1.90;;;22.40;41.60;;;;;;5115454;28;20027;-42
2023/12/22 07:13:23;;;;;;;2.28;1.98;;;22.40;41.80;;;;;;5117676;28;20028;-42
2023/12/22 07:15:50;;;;;;;2.40;1.90;;;22.30;41.90;;;;;;5119074;28;20032;-41
2023/12/22 07:18:16;;;;;;;3.58;2.03;;;22.20;42.50;;;;;;5117372;28;20055;-44
2023/12/22 07:20:42;;;;;;;2.70;1.98;;;22.20;42.10;;;;;;5115997;28;20058;-43
2023/12/22 07:23:11;;;;;;;4.05;1.88;;;22.20;42.00;;;;;;5117010;28;20636;-42
2023/12/22 07:25:40;;;;;;;2.55;1.92;;;22.20;41.80;;;;;;5116543;28;20095;-43
2023/12/22 07:28:06;;;;;;;3.70;2.25;;;22.20;41.70;;;;;;5119017;28;20024;-43
2023/12/22 07:30:32;;;;;;;5.17;2.50;;;22.10;41.80;;;;;;5119801;28;20061;-44
2023/12/22 07:32:58;;;;;;;4.80;2.20;;;22.10;41.90;;;;;;5120287;28;20023;-45
2023/12/22 07:35:25;;;;;;;2.38;1.88;;;22.00;42.00;;;;;;5117241;28;20055;-42
2023/12/22 07:37:51;;;;;;;3.78;2.42;;;22.00;42.10;;;;;;5116891;28;20035;-44
2023/12/22 07:40:17;;;;;;;3.45;2.33;;;22.00;42.00;;;;;;5118013;28;20638;-43
2023/12/22 07:42:43;;;;;;;2.83;2.30;;;22.00;42.20;;;;;;5097459;28;20039;-43
2023/12/22 07:45:09;;;;;;;3.25;2.28;;;22.10;42.20;;;;;;5114686;28;20043;-41
2023/12/22 07:47:37;;;;;;;5.25;2.20;;;22.20;42.10;;;;;;5115255;28;20031;-44
2023/12/22 07:50:03;;;;;;;;;;;22.30;42.00;;;;;;5117836;28;20080;-44
2023/12/22 07:52:29;;;;;;;2.55;1.90;;;22.30;41.90;;;;;;5117983;28;19934;-42
2023/12/22 07:54:56;;;;;;;2.63;2.10;;;22.40;41.90;;;;;;5118565;28;20036;-42
2023/12/22 07:57:22;;;;;;;3.22;2.45;;;22.40;41.80;;;;;;5118770;28;20065;-44
2023/12/22 07:59:48;;;;;;;4.03;2.83;;;22.40;41.80;;;;;;5119945;27;21400;-43
2023/12/22 08:02:14;;;;;;;3.55;2.50;;;22.30;41.90;;;;;;5099636;28;20176;-41
2023/12/22 08:04:41;;;;;;;4.68;2.42;;;22.30;41.90;;;;;;5115617;28;20051;-42
2023/12/22 08:07:07;;;;;;;3.88;2.50;;;22.20;42.00;;;;;;5108365;28;20031;-43
2023/12/22 08:09:33;;;;;;;3.38;2.30;;;22.20;42.00;;;;;;5107437;28;20032;-42
2023/12/22 08:11:59;;;;;;;3.28;2.30;;;22.20;41.90;;;;;;5104691;28;20024;-44
2023/12/22 08:14:25;;;;;;;3.78;2.67;;;22.20;42.00;;;;;;5111802;28;20043;-43
2023/12/22 08:16:52;;;;;;;4.13;2.60;;;22.10;42.10;;;;;;5106144;28;20040;-43
2023/12/22 08:19:18;;;;;;;3.58;2.50;;;22.00;42.10;;;;;;5115985;28;20020;-42
2023/12/22 08:21:44;;;;;;;4.25;2.67;;;22.00;42.20;;;;;;5096669;28;20403;-43
2023/12/22 08:24:11;;;;;;;3.72;2.65;;;21.90;42.30;;;;;;5118210;28;20023;-42
2023/12/22 08:26:37;;;;;;;3.63;2.60;;;22.00;42.10;;;;;;5119619;28;20142;-41
2023/12/22 08:29:03;;;;;;;3.55;2.40;;;22.00;42.00;;;;;;5116899;28;20031;-43
2023/12/22 08:31:29;;;;;;;3.45;2.58;;;22.00;42.00;;;;;;5106968;28;20499;-43
2023/12/22 08:33:55;;;;;;;3.45;2.50;;;22.10;42.50;;;;;;5111623;28;20036;-43
2023/12/22 08:36:21;;;;;;;3.20;2.35;;;22.20;41.90;;;;;;5109956;28;20112;-43
2023/12/22 08:38:48;;;;;;;3.60;2.30;;;22.30;41.90;;;;;;5111444;28;20020;-43
2023/12/22 08:41:14;;;;;;;4.47;2.80;;;22.30;41.80;;;;;;5118018;28;20023;-42
2023/12/22 08:43:40;;;;;;;4.35;3.17;;;22.30;41.90;;;;;;5110045;28;20107;-42
2023/12/22 08:46:06;;;;;;;4.03;2.55;;;22.30;42.50;;;;;;5115915;28;20027;-43
2023/12/22 08:48:33;;;;;;;5.93;2.53;;;22.20;41.90;;;;;;5111403;28;20043;-43
2023/12/22 08:50:59;;;;;;;4.13;2.80;;;22.20;42.10;;;;;;5115391;28;20019;-43
2023/12/22 08:53:25;;;;;;;5.35;2.78;;;22.10;42.10;;;;;;5114138;28;20032;-43
2023/12/22 08:55:51;;;;;;;4.25;2.75;;;22.10;42.00;;;;;;5113585;28;20074;-42
2023/12/22 08:58:18;;;;;;;4.20;2.80;;;22.10;42.00;;;;;;5118798;28;20038;-42
2023/12/22 09:00:44;;;;;;;5.18;3.38;;;22.10;42.10;;;;;;5110660;28;20047;-43
2023/12/22 09:03:10;;;;;;;4.07;2.63;;;22.00;42.20;;;;;;5111218;28;20415;-43
2023/12/22 09:05:36;;;;;;;4.03;3.00;;;21.90;42.30;;;;;;5113031;28;20028;-43
2023/12/22 09:08:02;;;;;;;4.07;3.03;;;21.90;42.20;;;;;;5097572;28;20487;-43
2023/12/22 09:10:29;;;;;;;4.60;2.97;;;21.90;42.40;;;;;;5112457;28;20034;-43
2023/12/22 09:12:55;;;;;;;7.75;3.30;;;21.90;42.20;;;;;;5117516;28;20076;-43
2023/12/22 09:15:21;;;;;;;4.43;3.30;;;21.90;42.20;;;;;;5112695;28;20107;-43
2023/12/22 09:17:47;;;;;;;4.68;2.90;;;21.90;42.10;;;;;;5115885;28;20036;-43
2023/12/22 09:20:13;;;;;;;5.05;2.88;;;22.00;42.10;;;;;;5112481;28;20024;-43
2023/12/22 09:22:39;;;;;;;4.22;2.85;;;22.10;42.00;;;;;;5115081;28;20028;-43
2023/12/22 09:25:06;;;;;;;3.78;3.03;;;22.20;42.00;;;;;;5098347;28;20480;-43
2023/12/22 09:27:32;;;;;;;6.57;2.85;;;22.30;41.90;;;;;;5109426;28;20028;-43
2023/12/22 09:29:58;;;;;;;6.68;3.13;;;22.30;41.90;;;;;;5109077;28;20035;-43
2023/12/22 09:32:24;;;;;;;3.67;2.92;;;22.30;42.00;;;;;;5113923;28;20537;-43
2023/12/22 09:34:50;;;;;;;4.30;2.75;;;22.20;42.00;;;;;;5110167;28;20076;-43
2023/12/22 09:37:16;;;;;;;4.72;3.25;;;22.10;42.00;;;;;;5106847;28;20040;-43
2023/12/22 09:39:42;;;;;;;6.38;3.33;;;22.10;42.40;;;;;;5107660;28;20027;-43
2023/12/22 09:42:09;;;;;;;4.68;3.40;;;22.10;42.70;;;;;;5106994;28;20019;-44
2023/12/22 09:44:35;;;;;;;4.57;3.60;;;22.10;42.50;;;;;;5103689;28;20024;-43
2023/12/22 09:47:03;;;;;;;6.25;3.10;;;22.00;42.40;;;;;;5110695;28;20048;-44
2023/12/22 09:49:29;;;;;;;4.70;3.30;;;22.00;42.40;;;;;;5114528;28;20075;-43
2023/12/22 09:51:55;;;;;;;4.50;3.35;;;22.00;42.50;;;;;;5127840;27;20120;-43
2023/12/22 09:54:22;;;;;;;6.97;3.30;;;21.90;42.50;;;;;;5112341;28;20035;-43
2023/12/22 09:56:48;;;;;;;4.60;3.30;;;21.90;42.50;;;;;;5103065;28;20040;-43
2023/12/22 09:59:14;;;;;;;4.18;3.42;;;22.00;42.30;;;;;;5096095;28;20102;-43
2023/12/22 10:01:45;;;;;;;3.93;3.00;;;22.10;42.30;;;;;;5095537;28;20116;-43
2023/12/22 10:04:12;;;;;;;4.28;3.13;;;22.10;42.10;;;;;;5110229;28;20031;-43
2023/12/22 10:06:39;;;;;;;3.63;2.70;;;22.20;42.10;;;;;;5095187;28;20513;-44
2023/12/22 10:09:08;;;;;;;4.10;3.35;;;22.30;42.10;;;;;;5114833;28;20043;-43
2023/12/22 10:11:36;;;;;;;4.20;3.15;;;22.30;42.00;;;;;;5106709;28;20036;-43
2023/12/22 10:14:02;;;;;;;3.80;3.13;;;22.30;42.00;;;;;;5115307;28;20524;-42
2023/12/22 10:16:29;;;;;;;6.10;3.55;;;22.30;42.00;;;;;;5114252;28;20040;-44
2023/12/22 10:18:55;;;;;;;4.75;3.63;;;22.20;42.00;;;;;;5117990;28;20031;-42
2023/12/22 10:21:21;;;;;;;4.95;3.83;;;22.20;42.10;;;;;;5090587;28;20027;-42
2023/12/22 10:23:47;;;;;;;4.97;3.70;;;22.10;42.10;;;;;;5090845;28;20767;-42
2023/12/22 10:26:13;;;;;;;6.40;4.15;;;22.10;42.20;;;;;;5121015;28;20039;-43
2023/12/22 10:28:40;;;;;;;4.90;3.72;;;22.10;42.10;;;;;;5116186;28;20028;-43
2023/12/22 10:31:07;;;;;;;;;;;22.10;42.10;;;;;;5094936;28;20042;-43
2023/12/22 10:33:33;;;;;;;6.70;3.92;;;22.00;42.70;;;;;;5120705;27;19911;-41
2023/12/22 10:36:00;;;;;;;5.93;3.85;;;21.90;42.20;;;;;;5116249;28;20030;-42
2023/12/22 10:38:35;;;;;;;5.15;3.67;;;21.90;42.20;;;;;;5114148;27;20040;-42
2023/12/22 10:41:05;;;;;;;5.72;3.58;;;21.90;42.30;;;;;;5115608;28;20130;-42
2023/12/22 10:43:36;;;;;;;4.78;3.20;;;21.90;42.20;;;;;;5117234;28;20028;-43
2023/12/22 10:46:03;;;;;;;4.57;3.65;;;21.90;42.10;;;;;;5111371;28;20032;-43
2023/12/22 10:48:29;;;;;;;5.50;3.40;;;22.00;42.10;;;;;;5099449;28;20088;-43
2023/12/22 10:50:55;;;;;;;4.93;3.60;;;22.10;42.00;;;;;;5111886;28;20374;-42
2023/12/22 10:53:23;;;;;;;5.72;3.50;;;22.20;42.00;;;;;;5118448;28;20059;-41
2023/12/22 10:55:50;;;;;;;4.63;3.50;;;22.30;42.50;;;;;;5120163;28;20047;-43
2023/12/22 10:58:17;;;;;;;5.15;3.80;;;22.30;41.90;;;;;;5118870;28;20024;-43
2023/12/22 11:00:45;;;;;;;4.95;3.35;;;22.30;41.90;;;;;;5117334;28;20024;-44
2023/12/22 11:03:13;;;;;;;5.50;3.80;;;22.30;41.90;;;;;;5114453;28;20047;-42
2023/12/22 11:05:39;;;;;;;5.15;3.72;;;22.20;42.00;;;;;;5112926;28;20031;-43
2023/12/22 11:08:05;;;;;;;4.43;3.57;;;22.20;42.00;;;;;;5108487;28;20046;-43
2023/12/22 11:10:31;;;;;;;4.18;3.28;;;22.10;42.10;;;;;;5099345;28;20052;-42
2023/12/22 11:12:58;;;;;;;5.40;3.85;;;22.10;42.10;;;;;;5099860;28;20165;-43
2023/12/22 11:15:24;;;;;;;5.15;3.70;;;22.10;42.30;;;;;;5094306;28;20039;-42
2023/12/22 11:17:52;;;;;;;5.67;3.63;;;22.10;42.20;;;;;;5100749;28;20092;-42
2023/12/22 11:20:18;;;;;;;5.47;3.90;;;22.00;42.30;;;;;;5115404;28;20095;-43
2023/12/22 11:22:44;;;;;;;4.47;3.47;;;22.00;42.20;;;;;;5117688;28;20016;-43
2023/12/22 11:25:11;;;;;;;6.27;3.93;;;22.00;42.30;;;;;;5118329;27;20043;-43
2023/12/22 11:27:37;;;;;;;6.00;3.72;;;21.90;42.30;;;;;;5118405;28;20031;-43
2023/12/22 11:30:08;;;;;;;5.10;3.80;;;21.90;42.20;;;;;;5116256;28;20442;-41
2023/12/22 11:32:34;;;;;;;4.72;3.70;;;22.20;41.70;;;;;;5133681;27;20050;-45
2023/12/22 11:35:00;;;;;;;6.28;3.50;;;22.20;41.90;;;;;;5116191;28;20016;-42
2023/12/22 11:37:26;;;;;;;5.03;3.30;;;22.30;41.90;;;;;;5114326;28;20035;-42
2023/12/22 11:39:52;;;;;;;4.05;3.17;;;22.40;41.70;;;;;;5117244;28;20106;-43
2023/12/22 11:42:27;;;;;;;4.60;3.30;;;22.40;42.30;;;;;;5113685;28;20029;-43
2023/12/22 11:44:54;;;;;;;5.00;3.65;;;22.40;41.80;;;;;;5083739;28;20031;-42
2023/12/22 11:47:23;;;;;;;5.30;3.50;;;22.40;42.00;;;;;;5081854;28;20035;-43
2023/12/22 11:49:52;;;;;;;4.95;3.45;;;22.30;42.00;;;;;;5117607;28;20076;-42
2023/12/22 11:52:19;;;;;;;7.45;3.72;;;22.20;42.10;;;;;;5114874;28;20031;-43
2023/12/22 11:55:06;;;;;;;5.22;3.58;;;22.10;42.10;;;;;;5052266;28;20037;-43
2023/12/22 11:58:01;;;;;;;4.78;3.55;;;22.10;42.30;;;;;;5048976;28;20042;-43
2023/12/22 12:00:27;;;;;;;5.22;3.67;;;22.10;42.00;;;;;;4970285;28;20035;-42
2023/12/22 12:02:56;;;;;;;5.70;3.85;;;22.10;42.00;;;;;;4972252;28;20253;-43
2023/12/22 12:05:22;;;;;;;5.43;3.83;;;22.00;42.10;;;;;;4972532;28;20090;-43
2023/12/22 12:07:49;;;;;;;8.03;3.87;;;21.90;42.20;;;;;;4960285;28;20126;-42
2023/12/22 12:10:37;;;;;;;4.75;3.65;;;21.90;42.30;;;;;;4973652;28;20136;-44
2023/12/22 12:13:07;;;;;;;5.47;3.90;;;21.90;42.30;;;;;;4974641;28;20065;-43
2023/12/22 12:15:34;;;;;;;5.32;3.65;;;21.90;42.10;;;;;;4979755;28;20066;-42
2023/12/22 12:18:01;;;;;;;5.63;3.67;;;22.00;42.00;;;;;;4975985;28;20043;-43
2023/12/22 12:20:27;;;;;;;5.28;3.45;;;22.10;42.00;;;;;;4992000;28;20038;-43
2023/12/22 12:22:56;;;;;;;5.55;3.30;;;22.20;42.00;;;;;;4976100;28;20031;-43
2023/12/22 12:25:28;;;;;;;4.72;3.17;;;22.20;41.90;;;;;;4993941;28;20065;-42
2023/12/22 12:28:07;;;;;;;4.78;3.20;;;22.30;41.90;;;;;;4976018;28;20050;-43
2023/12/22 12:30:33;;;;;;;4.82;3.58;;;22.30;41.80;;;;;;4977352;28;20035;-43
2023/12/22 12:33:09;;;;;;;6.67;4.20;;;22.30;41.90;;;;;;5027866;28;20088;-42
2023/12/22 12:35:36;;;;;;;5.45;4.25;;;22.20;42.00;;;;;;5032295;28;20278;-43
2023/12/22 12:38:03;;;;;;;5.13;3.80;;;22.10;42.00;;;;;;5092813;28;20052;-43
2023/12/22 12:40:30;;;;;;;;;;;22.10;42.20;;;;;;5117660;28;20109;-43
2023/12/22 12:42:56;;;;;;;6.50;4.07;;;22.10;42.20;;;;;;5118146;28;19920;-43
2023/12/22 12:45:23;;;;;;;6.10;3.65;;;22.00;42.10;;;;;;5099232;28;20158;-43
2023/12/22 12:48:02;;;;;;;5.57;3.90;;;22.00;42.10;;;;;;5116978;28;20047;-43